Time;durP1;ratioP1;P1;durP2;ratioP2;P2;SDS_P1;SDS_P2;PMS_P1;PMS_P2;Temp;Humidity;BMP_temperature;BMP_pressure;BME280_temperature;BME280_humidity;BME280_pressure;Samples;Min_cycle;Max_cycle;Signal;HPM_P1;HPM_P2
2021/10/15 00:02:10;;;;;;;;;;;;;;;22.36;29.98;98291.13;4958013;29;1216;-77
2021/10/15 00:04:35;;;;;;;;;;;;;;;22.38;30.00;98285.00;4957126;29;988;-77
2021/10/15 00:07:01;;;;;;;;;;;;;;;22.25;30.41;98285.72;4957688;29;898;-77
2021/10/15 00:09:26;;;;;;;;;;;;;;;22.35;30.04;98272.53;4956882;28;1809;-77
2021/10/15 00:11:52;;;;;;;;;;;;;;;21.70;31.77;98273.22;4957489;29;1986;-77
2021/10/15 00:14:17;;;;;;;;;;;;;;;22.33;30.41;98275.81;4999741;28;944;-77
2021/10/15 00:16:42;;;;;;;;;;;;;;;22.52;30.35;98276.13;5032431;28;970;-77
2021/10/15 00:19:08;;;;;;;;;;;;;;;22.87;29.47;98280.88;5059965;28;1251;-77
2021/10/15 00:21:33;;;;;;;;;;;;;;;22.68;29.67;98270.44;5059807;28;1705;-77
2021/10/15 00:23:59;;;;;;;;;;;;;;;22.31;30.48;98266.94;5059820;28;1434;-77
2021/10/15 00:26:24;;;;;;;;;;;;;;;22.44;30.29;98269.06;5077693;28;1649;-78
2021/10/15 00:28:50;;;;;;;;;;;;;;;22.27;30.43;98260.56;5015218;28;1041;-77
2021/10/15 00:31:15;;;;;;;;;;;;;;;22.79;29.65;98268.09;4976545;28;1958;-77
2021/10/15 00:33:41;;;;;;;;;;;;;;;22.66;29.81;98264.44;4975904;28;967;-77
2021/10/15 00:36:06;;;;;;;;;;;;;;;22.88;29.08;98259.00;4961574;28;1590;-76
2021/10/15 00:38:31;;;;;;;;;;;;;;;22.68;29.35;98261.13;4959951;28;1057;-77
2021/10/15 00:40:57;;;;;;;;;;;;;;;22.45;29.96;98251.63;4976831;28;919;-78
2021/10/15 00:43:24;;;;;;;;;;;;;;;22.44;29.82;98252.06;4975596;28;1136;-77
2021/10/15 00:45:49;;;;;;;;;;;;;;;22.51;30.09;98257.53;4976394;28;1595;-77
2021/10/15 00:48:15;;;;;;;;;;;;;;;22.41;29.88;98261.44;4975818;28;952;-77
2021/10/15 00:50:41;;;;;;;;;;;;;;;22.35;29.99;98256.31;4960755;28;1914;-77
2021/10/15 00:53:07;;;;;;;;;;;;;;;22.26;30.13;98253.28;4976479;28;1170;-77
2021/10/15 00:55:32;;;;;;;;;;;;;;;22.10;30.27;98245.59;4960065;28;1602;-78
2021/10/15 00:57:58;;;;;;;;;;;;;;;22.28;30.15;98256.50;4976424;28;1812;-77
2021/10/15 01:00:23;;;;;;;;;;;;;;;22.25;30.36;98257.38;5004695;28;1409;-77
2021/10/15 01:02:48;;;;;;;;;;;;;;;22.47;30.02;98256.81;5060774;28;998;-77
2021/10/15 01:05:14;;;;;;;;;;;;;;;22.56;29.92;98249.28;5058989;28;937;-77
2021/10/15 01:07:39;;;;;;;;;;;;;;;22.88;29.45;98248.44;5077165;28;1551;-77
2021/10/15 01:10:05;;;;;;;;;;;;;;;22.54;29.80;98246.09;5077028;28;1902;-78
2021/10/15 01:12:30;;;;;;;;;;;;;;;22.83;29.53;98248.94;5077649;28;888;-77
2021/10/15 01:14:56;;;;;;;;;;;;;;;23.12;29.19;98240.47;5058417;28;1488;-77
2021/10/15 01:17:21;;;;;;;;;;;;;;;22.66;29.74;98236.06;5077396;28;992;-78
2021/10/15 01:19:51;;;;;;;;;;;;;;;22.83;29.39;98246.13;5076924;28;991;-77
2021/10/15 01:22:16;;;;;;;;;;;;;;;23.01;29.20;98244.88;5079115;28;1000;-77
2021/10/15 01:24:42;;;;;;;;;;;;;;;22.88;29.13;98239.94;5080255;28;1662;-77
2021/10/15 01:27:08;;;;;;;;;;;;;;;22.86;29.01;98239.56;5081160;28;876;-77
2021/10/15 01:29:34;;;;;;;;;;;;;;;22.51;29.54;98246.19;5062669;28;959;-77
2021/10/15 01:31:59;;;;;;;;;;;;;;;22.56;29.51;98239.97;5038532;28;1981;-77
2021/10/15 01:34:25;;;;;;;;;;;;;;;22.36;29.86;98240.88;5038191;28;1571;-77
2021/10/15 01:36:50;;;;;;;;;;;;;;;22.39;30.09;98232.75;5038731;28;1034;-77
2021/10/15 01:39:15;;;;;;;;;;;;;;;22.45;29.83;98236.63;5038418;28;1004;-77
2021/10/15 01:41:41;;;;;;;;;;;;;;;22.32;29.96;98234.50;5022115;28;999;-77
2021/10/15 01:44:06;;;;;;;;;;;;;;;22.35;30.18;98236.47;5021207;28;1687;-77
2021/10/15 01:46:32;;;;;;;;;;;;;;;22.39;29.86;98244.09;5005605;28;966;-78
2021/10/15 01:48:57;;;;;;;;;;;;;;;22.24;29.89;98249.31;5038166;28;978;-77
2021/10/15 01:51:23;;;;;;;;;;;;;;;22.24;30.10;98243.66;5039218;28;2000;-77
2021/10/15 01:53:48;;;;;;;;;;;;;;;22.28;30.62;98241.53;5037781;28;999;-77
2021/10/15 01:56:13;;;;;;;;;;;;;;;22.41;30.15;98235.94;5037931;28;1583;-77
2021/10/15 01:58:41;;;;;;;;;;;;;;;22.20;30.57;98232.41;5037574;28;972;-77
2021/10/15 02:01:06;;;;;;;;;;;;;;;22.41;30.44;98238.75;5037919;28;1607;-76
2021/10/15 02:03:32;;;;;;;;;;;;;;;22.13;30.43;98226.13;5031537;28;955;-77
2021/10/15 02:05:57;;;;;;;;;;;;;;;22.81;29.84;98225.91;5037948;28;1690;-78
2021/10/15 02:08:23;;;;;;;;;;;;;;;22.75;29.41;98216.38;5037474;28;1040;-76
2021/10/15 02:10:48;;;;;;;;;;;;;;;22.76;29.61;98217.16;5038388;28;1902;-78
2021/10/15 02:13:13;;;;;;;;;;;;;;;22.84;29.39;98219.34;5037242;28;1013;-77
2021/10/15 02:15:39;;;;;;;;;;;;;;;22.68;29.61;98208.03;5037541;28;1725;-77
2021/10/15 02:18:04;;;;;;;;;;;;;;;22.53;30.25;98204.00;5037423;28;1306;-77
2021/10/15 02:20:29;;;;;;;;;;;;;;;22.90;29.57;98205.44;5037419;28;981;-77
2021/10/15 02:22:55;;;;;;;;;;;;;;;22.95;29.12;98204.06;5037520;28;1030;-77
2021/10/15 02:25:21;;;;;;;;;;;;;;;22.60;29.28;98203.81;5037352;28;1829;-77
2021/10/15 02:27:47;;;;;;;;;;;;;;;22.36;30.03;98206.88;5038034;28;942;-77
2021/10/15 02:30:12;;;;;;;;;;;;;;;22.51;29.51;98200.81;5037321;28;1976;-78
2021/10/15 02:32:38;;;;;;;;;;;;;;;22.43;29.90;98205.09;5037432;28;985;-77
2021/10/15 02:35:04;;;;;;;;;;;;;;;22.44;29.76;98212.38;5036131;28;1571;-77
2021/10/15 02:37:29;;;;;;;;;;;;;;;22.38;30.00;98222.63;5037691;28;921;-77
2021/10/15 02:39:55;;;;;;;;;;;;;;;22.36;29.91;98223.88;5038902;28;869;-77
2021/10/15 02:42:20;;;;;;;;;;;;;;;22.35;29.87;98222.28;5059732;28;820;-77
2021/10/15 02:44:45;;;;;;;;;;;;;;;22.25;29.92;98223.38;5064101;28;1564;-77
2021/10/15 02:47:11;;;;;;;;;;;;;;;22.31;30.11;98221.59;5079487;28;1578;-78
2021/10/15 02:49:36;;;;;;;;;;;;;;;22.28;30.01;98216.81;5079174;28;928;-77
2021/10/15 02:52:02;;;;;;;;;;;;;;;22.41;30.33;98213.25;5079562;28;1906;-77
2021/10/15 02:54:27;;;;;;;;;;;;;;;22.06;30.84;98210.84;5060279;28;1566;-78
2021/10/15 02:56:52;;;;;;;;;;;;;;;22.41;30.35;98216.09;5079442;28;904;-77
2021/10/15 02:59:18;;;;;;;;;;;;;;;22.59;29.83;98202.25;5043117;28;1548;-77
2021/10/15 03:01:43;;;;;;;;;;;;;;;22.61;30.00;98205.41;5079536;28;1037;-77
2021/10/15 03:04:09;;;;;;;;;;;;;;;22.56;30.17;98208.78;5078748;28;1080;-77
2021/10/15 03:06:34;;;;;;;;;;;;;;;23.05;29.28;98208.66;5078627;28;1582;-76
2021/10/15 03:09:01;;;;;;;;;;;;;;;22.62;30.13;98207.00;5078549;28;976;-77
2021/10/15 03:11:26;;;;;;;;;;;;;;;22.77;30.07;98208.19;5061315;28;1979;-77
2021/10/15 03:13:52;;;;;;;;;;;;;;;23.16;29.08;98217.66;5060329;28;961;-77
2021/10/15 03:16:17;;;;;;;;;;;;;;;23.06;29.23;98219.56;5078460;28;1598;-78
2021/10/15 03:18:42;;;;;;;;;;;;;;;22.98;28.89;98223.06;5077979;28;1730;-78
2021/10/15 03:21:09;;;;;;;;;;;;;;;22.65;29.26;98217.47;5079182;28;1032;-77
2021/10/15 03:23:34;;;;;;;;;;;;;;;22.46;29.87;98216.34;5078136;28;873;-77
2021/10/15 03:26:00;;;;;;;;;;;;;;;22.50;29.72;98221.91;5079377;28;1645;-77
2021/10/15 03:28:25;;;;;;;;;;;;;;;22.40;29.95;98223.78;5077824;28;884;-77
2021/10/15 03:30:50;;;;;;;;;;;;;;;22.29;30.41;98224.06;5079017;28;1986;-77
2021/10/15 03:33:16;;;;;;;;;;;;;;;22.33;30.32;98219.13;5035649;28;961;-77
2021/10/15 03:35:41;;;;;;;;;;;;;;;22.31;30.33;98221.59;5036468;28;1642;-77
2021/10/15 03:38:07;;;;;;;;;;;;;;;22.27;30.50;98222.91;5035844;28;953;-77
2021/10/15 03:40:32;;;;;;;;;;;;;;;21.98;31.26;98220.78;5036542;28;831;-77
2021/10/15 03:42:58;;;;;;;;;;;;;;;22.47;30.56;98222.81;5035736;28;1115;-77
2021/10/15 03:45:23;;;;;;;;;;;;;;;22.02;31.02;98209.34;5018744;28;1652;-78
2021/10/15 03:47:48;;;;;;;;;;;;;;;22.55;30.13;98213.66;5036256;28;1745;-78
2021/10/15 03:50:14;;;;;;;;;;;;;;;22.56;30.20;98209.59;5035884;28;1986;-77
2021/10/15 03:52:39;;;;;;;;;;;;;;;22.77;29.95;98207.41;5036298;28;993;-77
2021/10/15 03:55:05;;;;;;;;;;;;;;;22.23;30.62;98208.06;5035043;28;1686;-77
2021/10/15 03:57:30;;;;;;;;;;;;;;;22.66;30.19;98204.88;5033399;28;1100;-77
2021/10/15 03:59:56;;;;;;;;;;;;;;;22.71;29.85;98221.34;5015672;28;924;-78
2021/10/15 04:02:21;;;;;;;;;;;;;;;22.99;29.19;98216.91;5015991;28;1020;-77
2021/10/15 04:04:47;;;;;;;;;;;;;;;22.81;29.41;98203.22;4999869;28;1740;-76
2021/10/15 04:07:12;;;;;;;;;;;;;;;22.56;29.64;98209.59;5016164;28;1207;-77
2021/10/15 04:09:37;;;;;;;;;;;;;;;22.45;30.16;98216.78;5015317;28;925;-78
2021/10/15 04:12:03;;;;;;;;;;;;;;;22.47;30.16;98205.78;5016252;28;1888;-78
2021/10/15 04:14:28;;;;;;;;;;;;;;;22.34;30.09;98212.19;4999067;28;938;-77
2021/10/15 04:16:54;;;;;;;;;;;;;;;22.43;30.19;98205.09;4982465;28;1139;-77
2021/10/15 04:19:19;;;;;;;;;;;;;;;22.43;30.21;98200.19;5015715;28;1005;-77
2021/10/15 04:21:45;;;;;;;;;;;;;;;22.47;30.02;98200.13;5015988;28;953;-78
2021/10/15 04:24:10;;;;;;;;;;;;;;;22.42;30.03;98189.31;5015528;28;909;-77
2021/10/15 04:26:35;;;;;;;;;;;;;;;22.13;31.25;98186.47;4976196;28;998;-77
2021/10/15 04:29:01;;;;;;;;;;;;;;;22.32;31.03;98192.00;4965969;28;1291;-78
2021/10/15 04:31:26;;;;;;;;;;;;;;;22.27;30.92;98186.84;4966032;28;1902;-76
2021/10/15 04:33:52;;;;;;;;;;;;;;;22.12;30.96;98191.31;4966884;28;1373;-77
2021/10/15 04:36:17;;;;;;;;;;;;;;;22.99;29.84;98196.25;4967779;28;1305;-77
2021/10/15 04:38:43;;;;;;;;;;;;;;;23.14;29.24;98191.75;4984252;28;1394;-77
2021/10/15 04:41:08;;;;;;;;;;;;;;;22.77;30.16;98193.22;4995966;28;1390;-77
2021/10/15 04:43:34;;;;;;;;;;;;;;;22.39;30.64;98205.19;4994695;28;1394;-77
2021/10/15 04:45:59;;;;;;;;;;;;;;;23.09;29.55;98192.31;4995500;28;1453;-77
2021/10/15 04:48:24;;;;;;;;;;;;;;;22.40;30.28;98188.97;4994624;28;1378;-78
2021/10/15 04:50:50;;;;;;;;;;;;;;;22.84;29.48;98187.31;4995254;28;1903;-77
2021/10/15 04:53:15;;;;;;;;;;;;;;;22.71;29.64;98195.81;4994680;28;1341;-77
2021/10/15 04:55:41;;;;;;;;;;;;;;;22.47;30.02;98194.44;4995505;28;1473;-76
2021/10/15 04:58:06;;;;;;;;;;;;;;;22.37;30.29;98202.00;5022634;28;1338;-77
2021/10/15 05:00:32;;;;;;;;;;;;;;;22.54;29.92;98199.94;5034776;28;1392;-77
2021/10/15 05:02:57;;;;;;;;;;;;;;;22.43;29.96;98188.06;5015688;28;1318;-77
2021/10/15 05:05:25;;;;;;;;;;;;;;;22.40;30.04;98177.63;5024746;28;1325;-77
2021/10/15 05:07:50;;;;;;;;;;;;;;;22.30;29.96;98185.19;5028333;28;1444;-77
2021/10/15 05:10:16;;;;;;;;;;;;;;;22.38;30.32;98180.91;5025015;28;1987;-77
2021/10/15 05:12:41;;;;;;;;;;;;;;;22.17;30.93;98181.47;5008052;28;1369;-77
2021/10/15 05:15:08;;;;;;;;;;;;;;;22.67;30.19;98180.13;5005430;28;1445;-77
2021/10/15 05:17:34;;;;;;;;;;;;;;;22.60;30.49;98181.13;5004042;28;1434;-77
2021/10/15 05:20:00;;;;;;;;;;;;;;;21.88;31.46;98182.19;4955432;29;1418;-77
2021/10/15 05:22:26;;;;;;;;;;;;;;;22.43;30.48;98188.06;4956660;28;1446;-76
2021/10/15 05:24:51;;;;;;;;;;;;;;;22.79;29.85;98188.66;4956281;29;1031;-76
2021/10/15 05:27:17;;;;;;;;;;;;;;;22.41;30.73;98196.25;4940649;29;1005;-77
2021/10/15 05:29:47;;;;;;;;;;;;;;;22.87;29.67;98200.63;4956533;28;1110;-77
2021/10/15 05:32:13;;;;;;;;;;;;;;;22.94;30.15;98193.97;4937577;29;1970;-77
2021/10/15 05:34:38;;;;;;;;;;;;;;;23.17;29.13;98196.53;4937308;29;1006;-77
2021/10/15 05:37:04;;;;;;;;;;;;;;;22.67;29.76;98199.97;4938184;29;988;-76
2021/10/15 05:39:29;;;;;;;;;;;;;;;22.86;29.24;98199.03;4937282;29;950;-76
2021/10/15 05:41:54;;;;;;;;;;;;;;;22.66;29.71;98190.69;4922893;29;936;-76
2021/10/15 05:44:20;;;;;;;;;;;;;;;22.39;30.29;98193.06;4918065;29;914;-77
2021/10/15 05:46:45;;;;;;;;;;;;;;;22.26;30.68;98193.78;4948813;29;1014;-76
2021/10/15 05:49:11;;;;;;;;;;;;;;;22.24;30.68;98199.09;4937266;29;1069;-77
2021/10/15 05:51:40;;;;;;;;;;;;;;;22.41;30.04;98193.41;4966547;28;1899;-76
2021/10/15 05:54:08;;;;;;;;;;;;;;;22.31;30.43;98201.75;4975633;28;1095;-76
2021/10/15 05:56:41;;;;;;;;;;;;;;;22.47;30.08;98211.47;4975975;28;975;-77
2021/10/15 05:59:07;;;;;;;;;;;;;;;22.55;30.52;98207.19;4990746;28;951;-76
2021/10/15 06:01:33;;;;;;;;;;;;;;;22.27;30.69;98203.88;4976051;28;940;-77
2021/10/15 06:14:24;;;;;;;;;;;;;;;22.79;29.80;98211.38;5037532;28;960;-76
2021/10/15 06:16:52;;;;;;;;;;;;;;;23.00;29.75;98209.19;5037380;28;1164;-76
2021/10/15 06:19:20;;;;;;;;;;;;;;;22.96;29.22;98214.19;5037318;28;1075;-76
2021/10/15 06:21:46;;;;;;;;;;;;;;;22.72;29.34;98208.75;5022184;28;1142;-76
2021/10/15 06:24:11;;;;;;;;;;;;;;;22.54;29.86;98223.41;5037852;28;942;-76
2021/10/15 06:26:37;;;;;;;;;;;;;;;22.46;29.88;98226.88;5021670;28;1020;-76
2021/10/15 06:29:02;;;;;;;;;;;;;;;22.38;30.04;98226.25;5037262;28;929;-77
2021/10/15 06:31:29;;;;;;;;;;;;;;;22.57;29.67;98216.84;5038011;28;1980;-77
2021/10/15 06:33:55;;;;;;;;;;;;;;;22.35;30.41;98222.28;5037420;28;1095;-76
2021/10/15 06:36:20;;;;;;;;;;;;;;;22.33;30.37;98216.28;5037861;28;1265;-76
2021/10/15 06:38:45;;;;;;;;;;;;;;;22.24;30.59;98226.66;5017325;28;915;-77
2021/10/15 06:41:11;;;;;;;;;;;;;;;22.01;31.09;98213.41;4985017;28;1230;-76
2021/10/15 06:43:36;;;;;;;;;;;;;;;21.60;31.90;98209.13;5016546;28;1304;-77
2021/10/15 06:46:02;;;;;;;;;;;;;;;22.45;30.69;98202.63;5017796;28;938;-76
2021/10/15 06:48:28;;;;;;;;;;;;;;;22.48;30.49;98207.38;5017958;28;981;-77
2021/10/15 06:50:53;;;;;;;;;;;;;;;22.38;30.94;98208.47;5037490;28;1896;-77
2021/10/15 06:53:19;;;;;;;;;;;;;;;22.73;30.23;98213.16;5036778;28;1091;-77
2021/10/15 06:55:44;;;;;;;;;;;;;;;22.62;30.42;98207.00;5037198;28;838;-77
2021/10/15 06:58:10;;;;;;;;;;;;;;;22.62;30.25;98218.34;5036819;28;1002;-76
2021/10/15 07:00:35;;;;;;;;;;;;;;;22.97;30.01;98212.94;5037323;28;1019;-77
2021/10/15 07:03:01;;;;;;;;;;;;;;;22.56;30.72;98208.78;5003903;28;969;-77
2021/10/15 07:05:27;;;;;;;;;;;;;;;22.73;29.93;98201.03;5036989;28;942;-76
2021/10/15 07:07:52;;;;;;;;;;;;;;;22.86;29.94;98199.84;5037111;28;927;-76
2021/10/15 07:10:18;;;;;;;;;;;;;;;22.63;30.03;98191.56;5032069;28;1902;-77
2021/10/15 07:12:44;;;;;;;;;;;;;;;22.53;30.10;98186.97;5038954;28;1088;-77
2021/10/15 07:15:10;;;;;;;;;;;;;;;22.42;30.28;98197.81;5038690;28;899;-77
2021/10/15 07:17:35;;;;;;;;;;;;;;;22.48;30.38;98188.31;5044134;28;1182;-76
2021/10/15 07:20:01;;;;;;;;;;;;;;;22.42;30.48;98180.81;5056769;28;937;-76
2021/10/15 07:22:26;;;;;;;;;;;;;;;22.13;30.94;98186.47;5057514;28;1203;-77
2021/10/15 07:24:52;;;;;;;;;;;;;;;22.51;30.41;98198.00;5058407;28;895;-77
2021/10/15 07:27:18;;;;;;;;;;;;;;;22.30;30.75;98203.00;5058487;28;923;-76
2021/10/15 07:29:43;;;;;;;;;;;;;;;22.40;30.53;98200.31;5058449;28;937;-77
2021/10/15 07:32:09;;;;;;;;;;;;;;;22.16;30.85;98203.34;5058525;28;1976;-76
2021/10/15 07:34:35;;;;;;;;;;;;;;;22.16;31.15;98211.84;5058244;28;1000;-76
2021/10/15 07:37:01;;;;;;;;;;;;;;;22.75;30.50;98209.91;5040169;28;939;-76
2021/10/15 07:39:26;;;;;;;;;;;;;;;22.68;30.40;98215.75;5057912;28;927;-76
2021/10/15 07:41:52;;;;;;;;;;;;;;;22.24;30.91;98230.28;5058280;28;975;-78
2021/10/15 07:44:17;;;;;;;;;;;;;;;22.82;30.09;98223.88;5057990;28;930;-77
2021/10/15 07:46:43;;;;;;;;;;;;;;;22.45;30.73;98219.63;5057346;28;872;-77
2021/10/15 07:49:08;;;;;;;;;;;;;;;22.62;30.20;98207.00;5057069;28;959;-77
2021/10/15 07:51:34;;;;;;;;;;;;;;;22.92;29.82;98213.50;5058905;28;1906;-77
2021/10/15 07:53:59;;;;;;;;;;;;;;;23.07;29.20;98209.00;5057242;28;977;-77
2021/10/15 07:56:25;;;;;;;;;;;;;;;22.72;29.75;98203.06;5019623;28;1222;-77
2021/10/15 07:58:50;;;;;;;;;;;;;;;22.51;30.01;98212.16;5035662;28;947;-77
2021/10/15 08:01:16;;;;;;;;;;;;;;;22.41;30.00;98201.91;5036481;28;984;-78
2021/10/15 08:03:41;;;;;;;;;;;;;;;22.35;30.32;98205.28;5035686;28;1041;-77
2021/10/15 08:06:07;;;;;;;;;;;;;;;22.33;30.32;98196.44;5036420;28;1020;-78
2021/10/15 08:08:32;;;;;;;;;;;;;;;22.24;30.51;98210.44;5035760;28;916;-77
2021/10/15 08:10:58;;;;;;;;;;;;;;;22.28;30.23;98196.97;5036313;28;2063;-77
2021/10/15 08:13:23;;;;;;;;;;;;;;;22.34;30.19;98198.03;5035175;28;1001;-76
2021/10/15 08:15:48;;;;;;;;;;;;;;;22.36;29.98;98189.06;5035963;28;952;-79
2021/10/15 08:18:14;;;;;;;;;;;;;;;21.72;31.87;98185.81;5018549;28;1076;-77
2021/10/15 08:20:39;;;;;;;;;;;;;;;22.34;30.83;98174.56;5036252;28;950;-77
2021/10/15 08:23:05;;;;;;;;;;;;;;;22.70;30.31;98173.56;5018997;28;855;-77
2021/10/15 08:25:30;;;;;;;;;;;;;;;21.97;31.15;98168.19;5035662;28;893;-78
2021/10/15 08:27:56;;;;;;;;;;;;;;;22.48;30.46;98162.00;4986055;28;965;-77
2021/10/15 08:30:22;;;;;;;;;;;;;;;22.17;31.01;98176.59;5035322;28;1906;-77
2021/10/15 08:32:47;;;;;;;;;;;;;;;22.48;30.33;98170.50;5034524;28;927;-77
2021/10/15 08:35:13;;;;;;;;;;;;;;;23.16;29.47;98163.72;5035482;28;852;-77
2021/10/15 08:37:38;;;;;;;;;;;;;;;22.95;29.56;98167.19;5035774;28;951;-77
2021/10/15 08:40:04;;;;;;;;;;;;;;;22.95;29.41;98161.50;5034842;28;924;-77
2021/10/15 08:42:30;;;;;;;;;;;;;;;22.93;29.17;98152.66;5035662;28;901;-77
2021/10/15 08:44:55;;;;;;;;;;;;;;;22.66;29.83;98153.81;5035347;28;881;-77
2021/10/15 08:47:20;;;;;;;;;;;;;;;22.58;29.61;98166.59;5035666;28;899;-77
2021/10/15 08:49:46;;;;;;;;;;;;;;;22.49;29.91;98160.78;5035392;28;928;-76
2021/10/15 08:52:12;;;;;;;;;;;;;;;22.46;30.03;98158.84;5035789;28;1909;-76
2021/10/15 08:54:38;;;;;;;;;;;;;;;22.41;30.21;98151.66;5015532;28;945;-77
2021/10/15 08:57:04;;;;;;;;;;;;;;;22.24;30.49;98155.78;5016025;28;1093;-77
2021/10/15 08:59:42;;;;;;;;;;;;;;;22.40;30.22;98157.78;5027912;28;1322;-77
2021/10/15 09:02:08;;;;;;;;;;;;;;;22.16;30.04;98129.66;5055730;28;880;-77
2021/10/15 09:04:34;;;;;;;;;;;;;;;22.21;30.44;98177.31;5055010;28;904;-76
2021/10/15 09:07:07;;;;;;;;;;;;;;;22.21;30.44;98180.13;5052744;28;987;-78
2021/10/15 09:09:33;;;;;;;;;;;;;;;22.06;30.67;98176.06;4998566;28;878;-77
2021/10/15 09:12:11;;;;;;;;;;;;;;;21.63;31.85;98171.47;5015309;28;1913;-78
2021/10/15 09:14:37;;;;;;;;;;;;;;;22.55;30.97;98161.81;5014392;28;911;-77
2021/10/15 09:17:17;;;;;;;;;;;;;;;23.43;31.41;98174.66;5014740;28;1112;-77
2021/10/15 09:19:43;;;;;;;;;;;;;;;22.95;31.54;98172.84;5014915;28;1030;-77
2021/10/15 09:22:09;;;;;;;;;;;;;;;22.75;31.28;98179.50;5015458;28;932;-77
2021/10/15 09:24:36;;;;;;;;;;;;;;;22.48;31.47;98185.47;5015090;28;987;-77
2021/10/15 09:27:14;;;;;;;;;;;;;;;22.35;31.34;98187.47;4999167;28;952;-76
2021/10/15 09:29:42;;;;;;;;;;;;;;;22.33;31.33;98187.94;5015072;28;878;-76
2021/10/15 09:32:08;;;;;;;;;;;;;;;22.20;31.57;98192.72;5015364;28;1962;-78
2021/10/15 09:34:34;;;;;;;;;;;;;;;22.23;31.18;98191.84;4998745;28;940;-77
2021/10/15 09:36:59;;;;;;;;;;;;;;;22.20;31.21;98204.06;4957132;29;923;-77
2021/10/15 09:39:27;;;;;;;;;;;;;;;22.35;31.14;98199.63;4956301;29;982;-78
2021/10/15 09:41:53;;;;;;;;;;;;;;;21.87;32.56;98203.25;4956665;28;896;-78
2021/10/15 09:44:27;;;;;;;;;;;;;;;22.46;31.87;98199.31;4959488;29;897;-77
2021/10/15 09:47:12;;;;;;;;;;;;;;;22.24;31.85;98204.78;4978681;28;918;-77
2021/10/15 09:49:49;;;;;;;;;;;;;;;22.47;31.30;98189.56;4998865;28;857;-76
2021/10/15 09:52:34;;;;;;;;;;;;;;;22.56;31.03;98180.44;4998851;28;1968;-77
2021/10/15 09:55:01;;;;;;;;;;;;;;;22.34;31.59;98174.56;4998468;28;972;-77
2021/10/15 09:57:27;;;;;;;;;;;;;;;22.75;30.85;98176.66;4999195;28;986;-78
2021/10/15 09:59:52;;;;;;;;;;;;;;;22.82;30.61;98178.47;4982451;28;1040;-78
2021/10/15 10:02:18;;;;;;;;;;;;;;;22.86;30.30;98168.63;4998897;28;971;-77
2021/10/15 10:04:43;;;;;;;;;;;;;;;23.00;29.93;98175.16;4998342;28;982;-77
2021/10/15 10:07:09;;;;;;;;;;;;;;;22.89;30.09;98164.09;5005263;28;931;-77
2021/10/15 10:09:34;;;;;;;;;;;;;;;22.57;30.19;98162.16;5038814;28;817;-77
2021/10/15 10:11:59;;;;;;;;;;;;;;;22.54;30.39;98151.75;5040177;28;1963;-76
2021/10/15 10:14:25;;;;;;;;;;;;;;;22.49;30.29;98153.06;5037553;28;1718;-77
2021/10/15 10:16:50;;;;;;;;;;;;;;;22.43;30.50;98156.88;5041692;28;1064;-77
2021/10/15 10:19:16;;;;;;;;;;;;;;;22.40;30.51;98137.94;5079606;28;991;-77
2021/10/15 10:21:41;;;;;;;;;;;;;;;22.33;30.67;98151.09;5079446;28;862;-77
2021/10/15 10:24:07;;;;;;;;;;;;;;;22.35;30.44;98142.13;5078635;28;912;-77
2021/10/15 10:26:48;;;;;;;;;;;;;;;22.38;30.26;98158.22;5074309;28;906;-77
2021/10/15 10:29:14;;;;;;;;;;;;;;;22.26;30.35;98144.78;5020498;28;965;-77
2021/10/15 10:31:39;;;;;;;;;;;;;;;22.33;30.27;98153.91;4998283;28;1906;-77
2021/10/15 10:34:07;;;;;;;;;;;;;;;22.18;31.47;98149.88;5014403;28;1033;-77
2021/10/15 10:36:33;;;;;;;;;;;;;;;22.23;31.54;98140.03;4994847;28;1080;-77
2021/10/15 10:39:17;;;;;;;;;;;;;;;22.54;30.74;98146.06;4977883;28;894;-77
2021/10/15 10:41:49;;;;;;;;;;;;;;;22.32;31.05;98146.63;4978414;28;1152;-77
2021/10/15 10:44:14;;;;;;;;;;;;;;;22.73;30.53;98145.09;4980510;28;830;-77
2021/10/15 10:46:40;;;;;;;;;;;;;;;23.09;29.89;98139.19;4978353;28;1173;-77
2021/10/15 10:49:11;;;;;;;;;;;;;;;22.80;30.14;98144.09;4993956;28;989;-77
2021/10/15 10:51:37;;;;;;;;;;;;;;;22.68;30.26;98128.63;4978674;28;1890;-77
2021/10/15 10:54:03;;;;;;;;;;;;;;;21.88;31.75;98131.19;4993599;28;926;-77
2021/10/15 10:56:44;;;;;;;;;;;;;;;22.60;30.08;98127.25;4977918;28;1065;-77
2021/10/15 10:59:22;;;;;;;;;;;;;;;22.50;30.35;98131.19;4996990;28;1075;-77
2021/10/15 11:01:51;;;;;;;;;;;;;;;22.40;30.43;98123.78;4997698;28;912;-77
2021/10/15 11:04:29;;;;;;;;;;;;;;;22.33;30.45;98125.56;4996993;28;989;-78
2021/10/15 11:06:58;;;;;;;;;;;;;;;22.47;29.95;98126.41;4992771;28;1770;-77
2021/10/15 11:09:41;;;;;;;;;;;;;;;22.61;29.75;98131.66;5030505;28;1033;-77
2021/10/15 11:12:07;;;;;;;;;;;;;;;22.38;30.45;98117.75;5037278;28;1878;-76
2021/10/15 11:14:52;;;;;;;;;;;;;;;22.35;30.53;98125.91;5036083;28;926;-77
2021/10/15 11:17:18;;;;;;;;;;;;;;;22.09;31.60;98127.00;5036756;28;1059;-77
2021/10/15 11:19:44;;;;;;;;;;;;;;;22.31;31.01;98113.06;5036471;28;918;-77
2021/10/15 11:22:10;;;;;;;;;;;;;;;22.53;30.83;98118.94;5016938;28;930;-77
2021/10/15 11:24:35;;;;;;;;;;;;;;;22.44;30.88;98115.97;5033237;28;1131;-78
2021/10/15 11:27:12;;;;;;;;;;;;;;;22.10;31.41;98114.41;4994262;28;1045;-77
2021/10/15 11:29:50;;;;;;;;;;;;;;;22.67;30.14;98112.06;4966419;28;923;-77
2021/10/15 11:32:32;;;;;;;;;;;;;;;22.42;30.62;98096.56;4997346;28;1973;-78
2021/10/15 11:35:03;;;;;;;;;;;;;;;22.55;30.42;98094.56;4996569;28;1012;-78
2021/10/15 11:38:01;;;;;;;;;;;;;;;22.55;30.37;98093.78;5016554;28;1171;-77
2021/10/15 11:40:35;;;;;;;;;;;;;;;22.85;29.51;98083.97;4977183;28;951;-76
2021/10/15 11:43:10;;;;;;;;;;;;;;;22.67;29.88;98090.16;4977325;28;941;-78
2021/10/15 11:45:37;;;;;;;;;;;;;;;22.33;30.05;98083.03;4977922;28;843;-78
2021/10/15 11:48:02;;;;;;;;;;;;;;;22.55;29.86;98088.09;4977275;28;1070;-77
2021/10/15 11:50:46;;;;;;;;;;;;;;;22.56;30.00;98084.00;4977550;28;1975;-77
2021/10/15 11:53:12;;;;;;;;;;;;;;;22.31;30.16;98084.72;4976963;28;879;-77
2021/10/15 11:55:39;;;;;;;;;;;;;;;22.26;30.55;98082.44;4958216;29;979;-76
2021/10/15 11:58:20;;;;;;;;;;;;;;;22.38;30.09;98072.38;4947471;29;886;-77
2021/10/15 12:00:56;;;;;;;;;;;;;;;22.45;29.95;98086.38;4958130;29;923;-77
2021/10/15 12:03:25;;;;;;;;;;;;;;;22.35;30.40;98072.03;4957790;29;881;-77
2021/10/15 12:05:50;;;;;;;;;;;;;;;22.26;30.28;98074.72;4977101;28;926;-77
2021/10/15 12:08:16;;;;;;;;;;;;;;;22.30;30.94;98072.59;4976609;28;967;-77
2021/10/15 12:10:41;;;;;;;;;;;;;;;22.42;30.57;98078.75;4976998;28;1910;-77
2021/10/15 12:13:07;;;;;;;;;;;;;;;22.34;30.76;98078.97;4976499;28;976;-78
2021/10/15 12:15:32;;;;;;;;;;;;;;;22.42;30.58;98078.75;4970665;28;936;-77
2021/10/15 12:18:09;;;;;;;;;;;;;;;22.67;30.32;98070.31;4973337;28;1102;-77
2021/10/15 12:20:35;;;;;;;;;;;;;;;22.73;30.02;98068.50;4957594;28;1029;-78
2021/10/15 12:23:03;;;;;;;;;;;;;;;22.78;30.18;98058.63;4957650;28;898;-77
2021/10/15 12:25:29;;;;;;;;;;;;;;;23.19;29.09;98040.75;4958855;28;1004;-77
2021/10/15 12:27:54;;;;;;;;;;;;;;;22.83;29.73;98030.50;5015657;28;1094;-77
2021/10/15 12:30:24;;;;;;;;;;;;;;;22.86;29.50;98023.94;5015586;28;1026;-77
2021/10/15 12:32:49;;;;;;;;;;;;;;;23.12;29.26;98035.31;5015194;28;1914;-77
2021/10/15 12:35:15;;;;;;;;;;;;;;;22.81;29.26;98033.00;4999000;28;972;-77
2021/10/15 12:37:46;;;;;;;;;;;;;;;22.64;29.62;98040.03;5049826;28;989;-77
2021/10/15 12:40:15;;;;;;;;;;;;;;;22.55;30.06;98031.38;5055347;28;947;-77
2021/10/15 12:42:41;;;;;;;;;;;;;;;22.25;30.21;98041.97;5055115;28;942;-77
2021/10/15 12:45:07;;;;;;;;;;;;;;;22.47;29.82;98044.97;5055176;28;1068;-77
2021/10/15 12:47:33;;;;;;;;;;;;;;;22.41;30.04;98043.13;5074269;28;1346;-77
2021/10/15 12:49:58;;;;;;;;;;;;;;;22.39;29.78;98045.63;5074896;28;1003;-78
2021/10/15 12:52:31;;;;;;;;;;;;;;;22.25;30.46;98049.66;5076175;28;1914;-77
2021/10/15 12:54:56;;;;;;;;;;;;;;;22.18;30.45;98039.34;5076785;28;998;-78
2021/10/15 12:57:22;;;;;;;;;;;;;;;22.20;30.19;98028.34;5077281;28;819;-77
2021/10/15 13:00:01;;;;;;;;;;;;;;;22.15;30.90;98013.94;5076370;28;1135;-77
2021/10/15 13:02:27;;;;;;;;;;;;;;;21.97;31.44;98014.41;5075978;28;864;-77
2021/10/15 13:04:55;;;;;;;;;;;;;;;22.39;30.87;98023.75;5076953;28;837;-77
2021/10/15 13:07:20;;;;;;;;;;;;;;;22.59;30.26;98015.06;5077260;28;941;-77
2021/10/15 13:09:46;;;;;;;;;;;;;;;22.42;30.70;98011.50;5075325;28;920;-77
2021/10/15 13:12:11;;;;;;;;;;;;;;;22.87;29.91;98002.81;5076957;28;1953;-77